Time;durP1;ratioP1;P1;durP2;ratioP2;P2;SDS_P1;SDS_P2;PMS_P1;PMS_P2;Temp;Humidity;BMP_temperature;BMP_pressure;BME280_temperature;BME280_humidity;BME280_pressure;Samples;Min_cycle;Max_cycle;Signal;HPM_P1;HPM_P2
2023/01/28 00:00:51;;;;;;;1.65;0.80;;;3.50;83.40;;;;;;5077647;28;20048;-62
2023/01/28 00:03:18;;;;;;;1.55;0.77;;;3.50;83.40;;;;;;5081040;28;20058;-61
2023/01/28 00:05:53;;;;;;;3.63;0.65;;;3.50;83.40;;;;;;5084133;28;20089;-59
2023/01/28 00:08:20;;;;;;;1.50;0.75;;;3.40;83.50;;;;;;5085290;28;20051;-60
2023/01/28 00:10:47;;;;;;;3.40;1.08;;;3.50;83.40;;;;;;5085295;28;20066;-60
2023/01/28 00:13:14;;;;;;;1.17;0.68;;;3.50;83.40;;;;;;5083128;28;20521;-61
2023/01/28 00:15:43;;;;;;;2.05;0.70;;;3.50;83.40;;;;;;5086001;28;20608;-61
2023/01/28 00:18:10;;;;;;;1.30;0.70;;;3.40;83.40;;;;;;5087816;28;20071;-61
2023/01/28 00:20:38;;;;;;;1.65;0.63;;;3.40;83.30;;;;;;5086484;28;20068;-60
2023/01/28 00:23:05;;;;;;;2.70;0.85;;;3.50;83.20;;;;;;5085535;28;20044;-60
2023/01/28 00:25:32;;;;;;;1.08;0.63;;;3.50;83.30;;;;;;5084987;28;20052;-61
2023/01/28 00:28:00;;;;;;;1.23;0.60;;;3.50;83.10;;;;;;5088626;28;20051;-58
2023/01/28 00:30:33;;;;;;;1.88;0.70;;;3.50;82.90;;;;;;5083335;28;20068;-60
2023/01/28 00:33:01;;;;;;;1.95;0.63;;;3.50;82.90;;;;;;5085009;28;20044;-60
2023/01/28 00:35:28;;;;;;;3.15;0.70;;;3.50;82.80;;;;;;5084342;28;20063;-60
2023/01/28 00:37:55;;;;;;;1.75;0.77;;;3.40;82.90;;;;;;5081842;28;20048;-59
2023/01/28 00:40:22;;;;;;;1.75;0.77;;;3.40;82.80;;;;;;5085369;28;20052;-60
2023/01/28 00:42:56;;;;;;;1.35;0.77;;;3.50;83.00;;;;;;5084651;28;20052;-60
2023/01/28 00:45:23;;;;;;;1.20;0.50;;;3.50;83.00;;;;;;5081471;28;20075;-60
2023/01/28 00:47:50;;;;;;;1.45;0.77;;;3.50;82.80;;;;;;5087591;28;20483;-59
2023/01/28 00:50:21;;;;;;;1.02;0.70;;;3.50;82.80;;;;;;5082099;28;20052;-64
2023/01/28 00:52:48;;;;;;;1.88;0.93;;;3.50;82.80;;;;;;5085895;28;20368;-63
2023/01/28 00:55:16;;;;;;;1.77;0.70;;;3.50;82.60;;;;;;5082693;28;20279;-65
2023/01/28 00:57:43;;;;;;;1.58;0.80;;;3.50;82.60;;;;;;5083595;28;20052;-65
2023/01/28 01:00:11;;;;;;;2.53;0.88;;;3.50;82.70;;;;;;5059258;28;20418;-65
2023/01/28 01:02:38;;;;;;;1.17;0.70;;;3.40;82.80;;;;;;5086672;28;20067;-71
2023/01/28 01:05:06;;;;;;;2.17;0.80;;;3.50;82.80;;;;;;5062000;28;20044;-71
2023/01/28 01:07:40;;;;;;;2.55;0.85;;;3.40;82.70;;;;;;5082995;28;20051;-71
2023/01/28 01:10:09;;;;;;;2.47;0.73;;;3.40;82.80;;;;;;5068818;28;20047;-71
2023/01/28 01:12:38;;;;;;;1.80;0.85;;;3.40;82.80;;;;;;5086433;28;20517;-71
2023/01/28 01:15:07;;;;;;;1.45;0.63;;;3.40;82.70;;;;;;5070331;28;20054;-71
2023/01/28 01:17:36;;;;;;;2.72;0.68;;;3.40;82.90;;;;;;5066654;28;20105;-69
2023/01/28 01:20:04;;;;;;;3.03;0.90;;;3.50;82.70;;;;;;5088320;28;20055;-69
2023/01/28 01:22:35;;;;;;;2.60;0.93;;;3.40;82.70;;;;;;5063053;28;20043;-70
2023/01/28 01:25:02;;;;;;;2.17;0.80;;;3.40;82.90;;;;;;5064991;28;20205;-69
2023/01/28 01:27:29;;;;;;;2.33;1.20;;;3.40;82.70;;;;;;5090561;28;20481;-66
2023/01/28 01:29:58;;;;;;;2.28;0.90;;;3.40;82.80;;;;;;5091133;28;20054;-66
2023/01/28 01:32:29;;;;;;;1.27;0.80;;;3.40;82.70;;;;;;5071356;28;20050;-65
2023/01/28 01:34:56;;;;;;;2.90;1.00;;;3.40;82.80;;;;;;5089371;28;20052;-63
2023/01/28 01:37:25;;;;;;;2.47;1.10;;;3.40;82.40;;;;;;5088718;28;20048;-65
2023/01/28 01:39:53;;;;;;;1.98;0.90;;;3.40;82.60;;;;;;5083340;28;20075;-66
2023/01/28 01:42:21;;;;;;;2.25;0.90;;;3.40;82.40;;;;;;5078568;28;20043;-64
2023/01/28 01:44:57;;;;;;;2.35;1.00;;;3.40;82.50;;;;;;5065874;28;20048;-64
2023/01/28 01:47:29;;;;;;;1.50;0.75;;;3.40;82.40;;;;;;5085461;28;20101;-64
2023/01/28 01:49:56;;;;;;;1.67;0.85;;;3.40;82.30;;;;;;5066660;28;20136;-65
2023/01/28 01:52:29;;;;;;;1.83;1.02;;;3.30;81.90;;;;;;5079057;28;20091;-65
2023/01/28 01:55:01;;;;;;;1.90;0.77;;;3.40;82.00;;;;;;5066920;28;20048;-65
2023/01/28 01:57:33;;;;;;;1.67;0.85;;;3.40;82.20;;;;;;5083293;28;20135;-65
2023/01/28 02:00:05;;;;;;;1.83;0.90;;;3.40;82.10;;;;;;5060872;28;20036;-65
2023/01/28 02:02:43;;;;;;;2.38;1.00;;;3.40;82.00;;;;;;5078579;28;20883;-65
2023/01/28 02:05:13;;;;;;;2.80;0.97;;;3.40;82.20;;;;;;5070281;28;20436;-64
2023/01/28 02:07:42;;;;;;;2.53;0.90;;;3.40;82.20;;;;;;5084466;28;20050;-64
2023/01/28 02:10:13;;;;;;;1.60;0.85;;;3.40;82.00;;;;;;5087371;28;20036;-65
2023/01/28 02:12:43;;;;;;;1.63;0.90;;;3.40;82.10;;;;;;5087046;28;20052;-64
2023/01/28 02:15:14;;;;;;;2.20;1.02;;;3.40;82.00;;;;;;5084249;28;20498;-65
2023/01/28 02:17:42;;;;;;;1.60;0.80;;;3.40;82.00;;;;;;5087544;28;20148;-64
2023/01/28 02:20:10;;;;;;;1.90;0.95;;;3.40;81.70;;;;;;5085289;28;20115;-63
2023/01/28 02:23:06;;;;;;;2.10;1.00;;;3.40;81.90;;;;;;5088842;28;20532;-65
2023/01/28 02:26:24;;;;;;;1.42;0.90;;;3.40;81.50;;;;;;5086266;28;20576;-65
2023/01/28 02:28:59;;;;;;;2.08;0.90;;;3.40;81.90;;;;;;4962352;28;20050;-63
2023/01/28 02:31:31;;;;;;;2.13;0.80;;;3.40;81.70;;;;;;4987980;28;20556;-64
2023/01/28 02:34:07;;;;;;;2.58;0.95;;;3.30;81.70;;;;;;5039401;28;20486;-65
2023/01/28 02:36:39;;;;;;;1.98;1.00;;;3.40;81.60;;;;;;5088300;28;20430;-63
2023/01/28 02:39:15;;;;;;;3.60;1.20;;;3.40;81.60;;;;;;5070858;28;20146;-65
2023/01/28 02:41:49;;;;;;;2.47;0.95;;;3.40;81.60;;;;;;5065267;28;20039;-65
2023/01/28 02:44:17;;;;;;;1.85;0.90;;;3.40;81.60;;;;;;5068160;28;20051;-65
2023/01/28 02:49:33;;;;;;;2.13;1.13;;;3.30;81.60;;;;;;5082941;28;20105;-63
2023/01/28 02:52:19;;;;;;;1.98;0.90;;;3.30;81.60;;;;;;5061277;28;20047;-65
2023/01/28 02:54:55;;;;;;;2.35;1.15;;;3.40;81.50;;;;;;5086471;28;20055;-64
2023/01/28 02:57:34;;;;;;;2.47;1.20;;;3.40;81.20;;;;;;5085932;28;20066;-65
2023/01/28 03:00:10;;;;;;;2.30;1.17;;;3.30;81.30;;;;;;5058501;28;20040;-65
2023/01/28 03:02:44;;;;;;;1.48;1.00;;;3.30;81.40;;;;;;5083002;28;20091;-61
2023/01/28 03:05:21;;;;;;;1.48;0.98;;;3.30;81.60;;;;;;5065221;28;20082;-61
2023/01/28 03:07:49;;;;;;;2.08;1.30;;;3.30;81.60;;;;;;5061567;28;20094;-59
2023/01/28 03:10:22;;;;;;;1.95;1.20;;;3.30;81.40;;;;;;5087984;28;20101;-63
2023/01/28 03:38:21;;;;;;;3.47;1.60;;;3.30;81.00;;;;;;5068411;28;20052;-67
2023/01/28 03:40:51;;;;;;;3.78;1.48;;;3.30;81.20;;;;;;5068453;28;20071;-69
2023/01/28 03:43:18;;;;;;;3.00;1.30;;;3.30;81.20;;;;;;5084062;28;20044;-69
2023/01/28 03:45:50;;;;;;;2.28;1.27;;;3.30;81.50;;;;;;5070396;28;20055;-68
2023/01/28 03:48:18;;;;;;;3.58;1.70;;;3.30;81.30;;;;;;5066999;28;20067;-70
2023/01/28 03:50:45;;;;;;;3.47;1.75;;;3.30;81.40;;;;;;5068894;28;20106;-60
2023/01/28 03:53:13;;;;;;;3.65;1.60;;;3.30;81.20;;;;;;5066735;28;20085;-59
2023/01/28 03:55:46;;;;;;;3.10;1.65;;;3.30;81.30;;;;;;5065722;28;20177;-62
2023/01/28 03:58:14;;;;;;;2.10;1.50;;;3.30;81.20;;;;;;5080350;28;20056;-61
2023/01/28 04:00:42;;;;;;;4.25;1.77;;;3.30;81.30;;;;;;5067816;28;20054;-66
2023/01/28 04:03:15;;;;;;;3.97;1.50;;;3.30;80.90;;;;;;5064533;28;20124;-66
2023/01/28 04:05:45;;;;;;;3.53;1.60;;;3.20;81.00;;;;;;5063880;28;20406;-62
2023/01/28 04:08:12;;;;;;;3.83;1.52;;;3.30;81.10;;;;;;5080375;28;20052;-62
2023/01/28 04:11:15;;;;;;;3.90;2.03;;;3.30;81.10;;;;;;5078667;28;20516;-71
2023/01/28 04:13:46;;;;;;;3.08;1.80;;;3.30;81.00;;;;;;5054125;28;20052;-72
2023/01/28 04:16:16;;;;;;;3.95;1.73;;;3.30;80.90;;;;;;5064703;28;20398;-61
2023/01/28 04:18:43;;;;;;;4.60;2.40;;;3.20;81.00;;;;;;5062106;28;20172;-60
2023/01/28 04:21:12;;;;;;;3.63;2.13;;;3.30;81.10;;;;;;5085589;28;20052;-62
2023/01/28 04:23:39;;;;;;;4.28;1.95;;;3.30;81.00;;;;;;5066541;28;20151;-62
2023/01/28 04:26:07;;;;;;;3.47;2.05;;;3.30;81.20;;;;;;5066017;28;20052;-62
2023/01/28 04:28:36;;;;;;;4.35;1.83;;;3.30;81.10;;;;;;5079849;28;20048;-62
2023/01/28 04:31:02;;;;;;;3.58;1.60;;;3.30;81.00;;;;;;5063188;28;20133;-68
2023/01/28 04:33:42;;;;;;;4.03;1.92;;;3.30;81.00;;;;;;5080121;28;20500;-61
2023/01/28 04:36:48;;;;;;;4.07;1.75;;;3.30;81.00;;;;;;4966161;28;20537;-60
2023/01/28 04:39:24;;;;;;;4.53;2.05;;;3.30;80.90;;;;;;4961353;28;20137;-60
2023/01/28 04:42:09;;;;;;;4.57;2.20;;;3.30;81.10;;;;;;5042498;28;20064;-62
2023/01/28 04:44:57;;;;;;;4.40;2.13;;;3.20;81.00;;;;;;5064619;28;20056;-63
2023/01/28 04:47:46;;;;;;;3.72;2.05;;;3.30;81.10;;;;;;5064789;28;20044;-60
2023/01/28 04:50:51;;;;;;;5.45;2.95;;;3.20;81.10;;;;;;4994003;28;20069;-72
2023/01/28 04:53:27;;;;;;;3.90;2.10;;;3.20;81.00;;;;;;4995764;28;20050;-73
2023/01/28 04:55:58;;;;;;;4.70;2.45;;;3.20;81.20;;;;;;5028066;28;20125;-62
2023/01/28 04:58:28;;;;;;;4.40;2.50;;;3.20;81.30;;;;;;5071639;28;20040;-61
2023/01/28 05:01:00;;;;;;;5.07;2.70;;;3.20;81.20;;;;;;5063644;28;20113;-61
2023/01/28 05:03:27;;;;;;;4.47;2.20;;;3.20;81.10;;;;;;5068570;28;20055;-61
2023/01/28 05:05:55;;;;;;;3.30;1.95;;;3.20;81.10;;;;;;5073039;28;20052;-69
2023/01/28 05:08:53;;;;;;;5.43;2.25;;;3.20;81.20;;;;;;5065440;28;20050;-70
2023/01/28 05:11:20;;;;;;;4.65;2.35;;;3.20;81.10;;;;;;5065011;28;20044;-62
2023/01/28 05:13:50;;;;;;;5.05;2.55;;;3.20;81.10;;;;;;5067730;28;20093;-61
2023/01/28 05:16:20;;;;;;;5.00;2.75;;;3.20;81.00;;;;;;5069843;28;20054;-61
2023/01/28 05:18:46;;;;;;;3.78;2.22;;;3.20;81.10;;;;;;5090403;28;20067;-63
2023/01/28 05:21:18;;;;;;;5.53;2.53;;;3.20;81.00;;;;;;5068839;28;20071;-62
2023/01/28 05:23:49;;;;;;;6.70;2.55;;;3.20;81.00;;;;;;5070055;28;20052;-62
2023/01/28 05:26:18;;;;;;;4.93;2.33;;;3.20;81.10;;;;;;5062561;28;20402;-65
2023/01/28 05:28:45;;;;;;;5.05;2.60;;;3.20;80.90;;;;;;5068143;28;20491;-66
2023/01/28 05:31:12;;;;;;;5.03;2.70;;;3.20;80.80;;;;;;5062125;28;20041;-58
2023/01/28 05:33:39;;;;;;;6.00;3.30;;;3.20;81.10;;;;;;5067474;28;20040;-59
2023/01/28 05:36:09;;;;;;;5.80;2.75;;;3.20;81.00;;;;;;5087560;28;20491;-69
2023/01/28 05:38:36;;;;;;;4.13;2.30;;;3.20;80.80;;;;;;5070639;28;20458;-70
2023/01/28 05:41:03;;;;;;;4.60;2.05;;;3.20;81.00;;;;;;5066526;28;20043;-70
2023/01/28 05:43:34;;;;;;;4.50;2.38;;;3.20;81.00;;;;;;5084524;28;20086;-72
2023/01/28 05:46:16;;;;;;;4.82;2.35;;;3.20;81.00;;;;;;5067369;28;20052;-60
2023/01/28 05:49:21;;;;;;;4.90;2.42;;;3.20;81.00;;;;;;5003544;28;20452;-61
2023/01/28 05:52:00;;;;;;;5.45;2.45;;;3.20;80.80;;;;;;5006774;28;20054;-61
2023/01/28 05:54:32;;;;;;;6.47;2.58;;;3.10;80.90;;;;;;5039821;28;20563;-61
2023/01/28 05:57:01;;;;;;;4.30;2.60;;;3.20;80.90;;;;;;5059640;28;20040;-61
2023/01/28 05:59:31;;;;;;;4.78;2.60;;;3.10;80.90;;;;;;5069791;28;20056;-62
2023/01/28 06:01:58;;;;;;;4.90;2.40;;;3.10;80.60;;;;;;5066657;28;20135;-64
2023/01/28 06:04:26;;;;;;;4.78;2.05;;;3.20;81.00;;;;;;5087409;28;20509;-63
2023/01/28 06:06:53;;;;;;;4.80;2.00;;;3.10;80.70;;;;;;5063302;28;20125;-64
2023/01/28 06:09:20;;;;;;;6.05;2.17;;;3.10;80.90;;;;;;5080970;28;20826;-65
2023/01/28 06:11:49;;;;;;;5.80;2.25;;;3.10;80.70;;;;;;5067845;28;20074;-64
2023/01/28 06:14:15;;;;;;;7.25;2.55;;;3.10;80.70;;;;;;5086412;28;20126;-64
2023/01/28 06:17:07;;;;;;;4.90;2.03;;;3.10;80.80;;;;;;5076132;28;20063;-65
2023/01/28 06:19:55;;;;;;;4.60;2.28;;;3.10;80.70;;;;;;5089847;28;20437;-63
2023/01/28 06:22:22;;;;;;;3.60;1.70;;;3.10;80.30;;;;;;5086385;28;20398;-64
2023/01/28 06:24:49;;;;;;;4.88;2.10;;;3.10;80.70;;;;;;5088216;28;20052;-64
2023/01/28 06:27:16;;;;;;;4.22;1.90;;;3.10;80.70;;;;;;5068927;28;20040;-61
2023/01/28 06:29:45;;;;;;;4.30;1.95;;;3.10;80.60;;;;;;5086119;28;20051;-62
2023/01/28 06:32:13;;;;;;;5.22;1.95;;;3.10;80.30;;;;;;5070210;28;20044;-60
2023/01/28 06:34:40;;;;;;;5.47;2.35;;;3.10;80.50;;;;;;5086137;28;20105;-62
2023/01/28 06:37:07;;;;;;;4.93;2.20;;;3.10;80.30;;;;;;5086708;28;20494;-62
2023/01/28 06:39:34;;;;;;;4.68;2.05;;;3.10;80.20;;;;;;5086237;28;20515;-62
2023/01/28 06:42:01;;;;;;;3.97;1.88;;;3.10;80.40;;;;;;5087803;28;20051;-60
2023/01/28 06:44:28;;;;;;;4.35;1.92;;;3.10;80.20;;;;;;5086688;28;20063;-59
2023/01/28 06:46:54;;;;;;;5.25;2.30;;;3.10;80.50;;;;;;5084062;28;20394;-59
2023/01/28 06:49:23;;;;;;;4.65;1.80;;;3.10;80.50;;;;;;5084133;28;20044;-58
2023/01/28 06:51:54;;;;;;;3.50;1.80;;;3.10;80.20;;;;;;5085578;28;20172;-60
2023/01/28 06:54:21;;;;;;;4.82;1.67;;;3.10;80.10;;;;;;5086204;28;20036;-60
2023/01/28 06:56:49;;;;;;;3.60;1.70;;;3.00;80.10;;;;;;5084007;28;20047;-59
2023/01/28 06:59:15;;;;;;;4.70;1.90;;;3.10;80.20;;;;;;5087894;28;20572;-59
2023/01/28 07:01:42;;;;;;;4.90;2.13;;;3.10;80.10;;;;;;5083698;28;20205;-65
2023/01/28 07:04:09;;;;;;;5.10;1.90;;;3.10;80.40;;;;;;5079933;28;20066;-65
2023/01/28 07:06:37;;;;;;;4.85;1.80;;;3.10;80.20;;;;;;5084741;28;20394;-66
2023/01/28 07:09:04;;;;;;;3.58;1.55;;;3.10;79.60;;;;;;5085907;28;20047;-65
2023/01/28 07:11:31;;;;;;;2.97;1.20;;;3.00;79.40;;;;;;5083136;28;20048;-70
2023/01/28 07:13:58;;;;;;;3.30;1.33;;;3.00;79.90;;;;;;5086622;28;20044;-69
2023/01/28 07:16:25;;;;;;;3.58;1.33;;;3.00;79.70;;;;;;5085489;28;20501;-65
2023/01/28 07:18:51;;;;;;;3.55;1.65;;;3.00;79.80;;;;;;5086813;28;20043;-66
2023/01/28 07:21:18;;;;;;;3.33;1.40;;;3.10;80.00;;;;;;5089294;28;20051;-63
2023/01/28 07:23:46;;;;;;;3.03;1.55;;;3.10;79.50;;;;;;5085744;28;20052;-63
2023/01/28 07:26:14;;;;;;;3.05;1.33;;;3.00;79.30;;;;;;5086854;28;20097;-64
2023/01/28 07:28:41;;;;;;;5.35;1.75;;;3.10;79.60;;;;;;5079888;28;20075;-65
2023/01/28 07:31:08;;;;;;;2.72;1.15;;;3.00;79.00;;;;;;5086599;28;20440;-64
2023/01/28 07:33:39;;;;;;;2.92;1.38;;;3.00;79.20;;;;;;5086167;28;20044;-64
2023/01/28 07:36:07;;;;;;;2.97;1.27;;;3.00;79.10;;;;;;5086650;28;20055;-63
2023/01/28 07:38:34;;;;;;;2.85;1.10;;;3.00;78.60;;;;;;5085995;28;20137;-63
2023/01/28 07:41:02;;;;;;;4.45;1.73;;;3.00;78.40;;;;;;5086488;28;20048;-63
2023/01/28 07:43:29;;;;;;;3.22;1.15;;;3.00;78.80;;;;;;5083472;28;20044;-65
2023/01/28 07:45:56;;;;;;;2.67;1.30;;;3.00;78.50;;;;;;5084431;28;20125;-64
2023/01/28 07:48:23;;;;;;;4.57;1.75;;;3.00;78.80;;;;;;5085502;28;20439;-65
2023/01/28 07:50:50;;;;;;;4.53;2.17;;;3.00;78.80;;;;;;5066727;28;20071;-63
2023/01/28 07:53:18;;;;;;;5.57;2.17;;;2.90;78.30;;;;;;5083549;28;20372;-63
2023/01/28 07:55:45;;;;;;;3.47;1.88;;;2.90;78.30;;;;;;5084443;28;20062;-65
2023/01/28 07:58:13;;;;;;;4.78;2.13;;;3.00;78.60;;;;;;5083247;28;20056;-65
2023/01/28 08:00:40;;;;;;;4.85;1.98;;;2.90;78.50;;;;;;5085578;28;20052;-64
2023/01/28 08:03:12;;;;;;;5.50;2.75;;;2.90;78.50;;;;;;5074400;28;20059;-65
2023/01/28 08:05:42;;;;;;;5.57;2.45;;;2.90;78.50;;;;;;5085325;28;20079;-65
2023/01/28 08:08:09;;;;;;;4.68;1.77;;;2.90;78.60;;;;;;5083558;28;20109;-64
2023/01/28 08:10:36;;;;;;;3.10;1.52;;;2.90;78.40;;;;;;5082310;28;20047;-63
2023/01/28 08:13:04;;;;;;;5.75;2.05;;;2.90;78.10;;;;;;5085085;28;20143;-64
2023/01/28 08:15:33;;;;;;;4.28;2.00;;;2.90;78.30;;;;;;5081851;28;20136;-65
2023/01/28 08:18:00;;;;;;;5.03;1.77;;;2.90;78.30;;;;;;5084022;28;20137;-65
2023/01/28 08:20:29;;;;;;;4.38;2.38;;;2.90;78.50;;;;;;5085415;28;20052;-65
2023/01/28 08:23:08;;;;;;;4.30;1.88;;;2.90;78.20;;;;;;5086772;28;20044;-64
2023/01/28 08:25:36;;;;;;;4.72;1.88;;;2.90;78.20;;;;;;5084184;28;20531;-63
2023/01/28 08:28:04;;;;;;;3.92;1.52;;;2.80;78.00;;;;;;5087218;28;20048;-63
2023/01/28 08:30:32;;;;;;;3.65;1.65;;;2.80;78.20;;;;;;5082854;28;20410;-65
2023/01/28 08:33:00;;;;;;;4.03;2.00;;;2.90;77.70;;;;;;5083935;28;20050;-65
2023/01/28 08:35:28;;;;;;;3.25;1.90;;;2.90;78.00;;;;;;5082009;28;21510;-65
2023/01/28 08:37:55;;;;;;;5.18;2.03;;;2.90;78.00;;;;;;5082252;28;20419;-65
2023/01/28 08:40:22;;;;;;;3.80;1.95;;;2.80;77.60;;;;;;5081830;28;20636;-64
2023/01/28 08:42:50;;;;;;;3.53;1.67;;;2.80;77.90;;;;;;5087109;28;20044;-63
2023/01/28 08:45:17;;;;;;;2.78;1.52;;;2.90;77.90;;;;;;5084441;28;20044;-62
2023/01/28 08:47:52;;;;;;;4.60;1.98;;;2.80;77.70;;;;;;5083187;28;20052;-64
2023/01/28 08:50:21;;;;;;;3.17;1.73;;;2.80;77.70;;;;;;5058487;28;20080;-64
2023/01/28 08:52:49;;;;;;;4.45;1.77;;;2.80;77.80;;;;;;5084240;28;20040;-63
2023/01/28 08:55:17;;;;;;;4.60;1.85;;;2.80;77.40;;;;;;5082486;28;20249;-63
2023/01/28 08:57:44;;;;;;;3.88;1.77;;;2.80;77.40;;;;;;5082215;28;20074;-63
2023/01/28 09:00:12;;;;;;;3.58;1.67;;;2.80;77.70;;;;;;5083596;28;20040;-63
2023/01/28 09:02:40;;;;;;;3.58;1.65;;;2.80;77.20;;;;;;5083879;28;20048;-63
2023/01/28 09:05:09;;;;;;;3.47;1.58;;;2.80;77.60;;;;;;5083867;28;20085;-64
2023/01/28 09:07:37;;;;;;;4.32;1.80;;;2.80;77.50;;;;;;5067007;28;20896;-65
2023/01/28 09:10:05;;;;;;;4.25;2.13;;;2.80;77.50;;;;;;5086846;28;20044;-64
2023/01/28 09:12:33;;;;;;;4.25;2.05;;;2.80;77.50;;;;;;5081631;28;20048;-63
2023/01/28 09:15:00;;;;;;;3.75;1.98;;;2.80;77.50;;;;;;5085643;28;20060;-58
2023/01/28 09:17:28;;;;;;;4.65;1.92;;;2.70;77.80;;;;;;5083284;28;20392;-58
2023/01/28 09:19:55;;;;;;;4.28;2.60;;;2.80;77.70;;;;;;5085503;28;20050;-58
2023/01/28 09:22:23;;;;;;;3.40;1.73;;;2.80;77.70;;;;;;5079612;28;20757;-60
2023/01/28 09:24:50;;;;;;;3.60;1.80;;;2.80;77.80;;;;;;5085609;28;20426;-60
2023/01/28 09:27:18;;;;;;;3.78;1.50;;;2.80;77.70;;;;;;5082792;28;20532;-62
2023/01/28 09:29:45;;;;;;;4.20;1.98;;;2.80;77.20;;;;;;5086134;28;20044;-62
2023/01/28 09:32:12;;;;;;;3.40;1.70;;;2.80;77.40;;;;;;5086357;28;20105;-72
2023/01/28 09:34:39;;;;;;;3.95;1.70;;;2.80;77.80;;;;;;5089090;28;20410;-71
2023/01/28 09:37:05;;;;;;;5.57;2.30;;;2.80;77.70;;;;;;5089346;28;20398;-69
2023/01/28 09:39:34;;;;;;;3.95;1.90;;;2.80;76.90;;;;;;5088001;28;20055;-68
2023/01/28 09:42:27;;;;;;;4.07;1.85;;;2.80;77.60;;;;;;5086248;28;20060;-59
2023/01/28 09:45:02;;;;;;;3.42;1.70;;;2.80;77.40;;;;;;5087378;28;20052;-60
2023/01/28 09:47:35;;;;;;;5.38;1.80;;;2.80;77.00;;;;;;5084315;28;20153;-70
2023/01/28 09:50:07;;;;;;;4.80;1.70;;;2.90;77.30;;;;;;5087023;28;20048;-63
2023/01/28 09:52:36;;;;;;;3.92;1.67;;;2.90;77.20;;;;;;5085549;28;20127;-66
2023/01/28 09:55:07;;;;;;;4.75;1.75;;;2.80;76.70;;;;;;5087656;28;20406;-66
2023/01/28 09:57:41;;;;;;;4.03;1.60;;;2.80;77.30;;;;;;5088093;28;20147;-65
2023/01/28 10:00:14;;;;;;;3.97;1.90;;;2.90;77.20;;;;;;5084983;28;20052;-59
2023/01/28 10:02:56;;;;;;;2.97;1.58;;;2.80;77.20;;;;;;5085201;28;20487;-62
2023/01/28 10:05:33;;;;;;;3.78;1.98;;;2.90;76.90;;;;;;5085464;28;20062;-61
2023/01/28 10:08:14;;;;;;;4.85;2.03;;;2.90;77.10;;;;;;5084665;28;20048;-60
2023/01/28 10:10:48;;;;;;;3.63;1.88;;;2.90;77.00;;;;;;5083793;28;20418;-62
2023/01/28 10:13:28;;;;;;;3.92;2.30;;;2.90;77.00;;;;;;5087711;28;20064;-62
2023/01/28 10:16:11;;;;;;;5.28;2.10;;;2.90;76.70;;;;;;5083945;28;20525;-65
2023/01/28 10:18:46;;;;;;;6.93;2.47;;;2.90;76.20;;;;;;5086919;28;20059;-65
2023/01/28 10:21:20;;;;;;;6.05;2.17;;;2.90;77.10;;;;;;5085965;28;20054;-65
2023/01/28 10:23:57;;;;;;;4.50;2.60;;;2.90;76.70;;;;;;5088899;28;20139;-60
2023/01/28 10:26:30;;;;;;;4.68;2.13;;;2.90;76.30;;;;;;5085319;28;20056;-59
2023/01/28 10:29:02;;;;;;;4.68;2.25;;;2.90;76.40;;;;;;5088133;28;20048;-61
2023/01/28 10:31:33;;;;;;;4.95;2.33;;;2.90;76.90;;;;;;5082192;28;20044;-62
2023/01/28 10:34:03;;;;;;;3.90;2.05;;;3.00;75.90;;;;;;5084859;28;20056;-60
2023/01/28 10:36:30;;;;;;;3.30;1.67;;;2.90;75.80;;;;;;5085994;28;20049;-61
2023/01/28 10:38:57;;;;;;;4.55;1.92;;;3.00;75.80;;;;;;5084213;28;20059;-60
2023/01/28 10:41:25;;;;;;;3.38;1.98;;;3.00;75.70;;;;;;5084618;28;20052;-61
2023/01/28 10:43:52;;;;;;;6.20;2.50;;;3.00;76.00;;;;;;5084894;28;20044;-61
2023/01/28 10:46:23;;;;;;;5.63;2.53;;;3.00;75.60;;;;;;5087914;28;20054;-70
2023/01/28 10:48:55;;;;;;;;;;;3.00;76.00;;;;;;5080782;28;20846;-69
2023/01/28 10:51:31;;;;;;;3.17;1.88;;;3.00;75.50;;;;;;5086114;28;19924;-71
2023/01/28 10:53:57;;;;;;;5.43;2.40;;;3.00;75.00;;;;;;5084360;28;20076;-71
2023/01/28 10:56:28;;;;;;;4.63;1.88;;;3.00;75.50;;;;;;5087329;28;20055;-60
2023/01/28 10:59:00;;;;;;;3.42;1.95;;;3.00;74.70;;;;;;5085084;28;20060;-60
2023/01/28 11:01:44;;;;;;;5.45;2.65;;;3.00;74.80;;;;;;5079545;28;20075;-61
2023/01/28 11:04:18;;;;;;;4.57;1.92;;;3.10;75.00;;;;;;5080828;28;20044;-60
2023/01/28 11:06:57;;;;;;;3.90;1.85;;;3.10;75.10;;;;;;5088999;28;20044;-61
2023/01/28 11:09:26;;;;;;;4.15;2.05;;;3.10;75.60;;;;;;5084927;28;20040;-60
2023/01/28 11:11:54;;;;;;;6.93;2.13;;;3.10;74.50;;;;;;5088060;28;20043;-60
2023/01/28 11:14:26;;;;;;;4.35;2.05;;;3.20;74.90;;;;;;5085327;28;20056;-61
2023/01/28 11:16:57;;;;;;;4.57;2.17;;;3.20;74.30;;;;;;5079901;28;20257;-62
2023/01/28 11:19:31;;;;;;;4.72;2.17;;;3.20;74.20;;;;;;5085972;28;20048;-62
2023/01/28 11:21:58;;;;;;;4.13;1.88;;;3.20;73.40;;;;;;5088304;28;20055;-60
2023/01/28 11:24:30;;;;;;;5.00;1.80;;;3.20;73.20;;;;;;5082330;28;20055;-59
2023/01/28 11:27:01;;;;;;;2.88;1.80;;;3.20;73.30;;;;;;5085097;28;20055;-60
2023/01/28 11:29:31;;;;;;;3.83;2.17;;;3.30;73.00;;;;;;5085171;28;20048;-61
2023/01/28 11:32:00;;;;;;;3.75;2.17;;;3.20;73.50;;;;;;5085563;28;20055;-62
2023/01/28 11:34:34;;;;;;;5.05;1.90;;;3.20;73.20;;;;;;5086782;28;20101;-61
2023/01/28 11:37:15;;;;;;;2.72;1.55;;;3.20;73.10;;;;;;5085602;28;20562;-60
2023/01/28 11:39:41;;;;;;;3.03;1.65;;;3.30;71.50;;;;;;5079787;28;20044;-62
2023/01/28 11:42:17;;;;;;;3.45;1.60;;;3.30;72.10;;;;;;5085178;28;20135;-60
2023/01/28 11:44:44;;;;;;;3.33;1.77;;;3.30;72.20;;;;;;5089681;28;20043;-59
2023/01/28 11:47:26;;;;;;;2.92;1.60;;;3.30;71.50;;;;;;5086004;28;20048;-62
2023/01/28 11:50:15;;;;;;;2.67;1.50;;;3.30;70.90;;;;;;5086870;28;20529;-61
2023/01/28 11:52:54;;;;;;;2.10;1.42;;;3.40;70.90;;;;;;5085782;28;20371;-71
2023/01/28 11:55:37;;;;;;;3.30;1.45;;;3.30;72.00;;;;;;5086191;28;20048;-71
2023/01/28 11:58:20;;;;;;;5.22;1.75;;;3.30;70.90;;;;;;5086839;28;20044;-71
2023/01/28 12:00:56;;;;;;;5.28;1.73;;;3.40;70.70;;;;;;5086586;28;20043;-71
2023/01/28 12:03:56;;;;;;;3.03;1.70;;;3.40;72.30;;;;;;5086738;28;20047;-71
2023/01/28 12:06:47;;;;;;;5.20;2.50;;;3.50;71.30;;;;;;5048132;28;20581;-71
2023/01/28 12:09:20;;;;;;;;;;;3.40;71.20;;;;;;5087181;28;20162;-71
2023/01/28 12:12:13;;;;;;;6.10;2.28;;;3.40;71.60;;;;;;5086862;28;19935;-71
2023/01/28 12:15:09;;;;;;;4.45;2.15;;;3.50;71.30;;;;;;5086959;28;20121;-64
2023/01/28 12:17:49;;;;;;;5.80;2.30;;;3.50;71.80;;;;;;5086310;28;20055;-66
2023/01/28 12:20:26;;;;;;;7.88;3.30;;;3.50;70.50;;;;;;5086033;28;20040;-64
2023/01/28 12:23:11;;;;;;;8.98;4.00;;;3.60;70.00;;;;;;5087026;28;20059;-66
2023/01/28 12:25:58;;;;;;;8.35;3.90;;;3.50;70.90;;;;;;5085791;28;20406;-64
2023/01/28 12:28:35;;;;;;;8.93;4.15;;;3.50;70.30;;;;;;5085718;28;20055;-66
2023/01/28 12:31:33;;;;;;;9.80;4.43;;;3.50;71.00;;;;;;5087160;28;20490;-66
2023/01/28 12:34:20;;;;;;;8.07;3.88;;;3.50;69.20;;;;;;5085590;28;20050;-67
2023/01/28 12:36:57;;;;;;;7.55;3.80;;;3.50;68.80;;;;;;5085877;28;20052;-65
2023/01/28 12:39:34;;;;;;;9.13;4.35;;;3.60;69.20;;;;;;5084912;28;20044;-66
2023/01/28 12:42:06;;;;;;;7.55;3.85;;;3.50;69.50;;;;;;5088037;28;20044;-65
2023/01/28 12:44:37;;;;;;;6.65;3.40;;;3.50;69.80;;;;;;5086977;28;20040;-66
2023/01/28 12:47:10;;;;;;;7.43;3.30;;;3.50;70.30;;;;;;5087954;28;20044;-65
2023/01/28 12:49:42;;;;;;;4.72;2.67;;;3.50;68.70;;;;;;5086159;28;20044;-66
2023/01/28 12:52:14;;;;;;;4.32;2.17;;;3.60;70.50;;;;;;5087607;28;20043;-65
2023/01/28 12:54:48;;;;;;;3.55;1.92;;;3.60;69.10;;;;;;5086555;28;20064;-66
2023/01/28 12:57:29;;;;;;;4.25;2.10;;;3.60;70.30;;;;;;5084838;28;20135;-67
2023/01/28 13:00:12;;;;;;;4.82;2.70;;;3.60;68.50;;;;;;5085173;28;20792;-65
2023/01/28 13:02:44;;;;;;;5.88;2.75;;;3.60;70.10;;;;;;5087337;28;20060;-61
2023/01/28 13:05:16;;;;;;;6.78;3.50;;;3.60;68.20;;;;;;5086292;28;20631;-61
2023/01/28 13:07:48;;;;;;;6.65;3.92;;;3.50;68.90;;;;;;5093198;28;20062;-61
2023/01/28 13:10:22;;;;;;;9.27;4.60;;;3.50;69.30;;;;;;5092179;28;20058;-62
2023/01/28 13:12:49;;;;;;;7.32;4.13;;;3.50;67.70;;;;;;5091859;28;20067;-61
2023/01/28 13:15:19;;;;;;;6.15;3.35;;;3.50;68.70;;;;;;5090353;28;20609;-61
2023/01/28 13:17:59;;;;;;;5.95;3.35;;;3.60;69.00;;;;;;5091592;28;20048;-62
2023/01/28 13:20:35;;;;;;;3.55;2.20;;;3.70;69.50;;;;;;5090071;28;20486;-66
2023/01/28 13:23:04;;;;;;;4.53;2.55;;;3.60;69.80;;;;;;5090115;28;20052;-67
2023/01/28 13:25:33;;;;;;;4.40;2.10;;;3.60;68.90;;;;;;5090234;28;20058;-63
2023/01/28 13:28:03;;;;;;;5.15;2.65;;;3.50;68.60;;;;;;5090362;28;20040;-61
2023/01/28 13:30:31;;;;;;;5.70;2.40;;;3.50;67.90;;;;;;5091207;28;20052;-62
2023/01/28 13:33:02;;;;;;;4.43;2.10;;;3.50;68.10;;;;;;5071191;28;20402;-61
2023/01/28 13:35:32;;;;;;;4.60;2.30;;;3.40;68.50;;;;;;5088243;28;20367;-61
2023/01/28 13:38:07;;;;;;;3.88;2.33;;;3.40;68.10;;;;;;5065885;28;20131;-63
2023/01/28 13:40:34;;;;;;;4.72;2.35;;;3.40;68.90;;;;;;5088581;28;20056;-66
2023/01/28 13:43:04;;;;;;;3.63;2.33;;;3.40;67.90;;;;;;5090403;28;20076;-68
2023/01/28 13:45:32;;;;;;;4.00;2.47;;;3.40;68.00;;;;;;5087436;28;20056;-63
2023/01/28 13:48:18;;;;;;;4.53;2.30;;;3.50;68.10;;;;;;5087573;28;20078;-63
2023/01/28 13:50:45;;;;;;;5.30;2.20;;;3.50;69.10;;;;;;5089934;28;20048;-67